sensor_id;sensor_type;location;lat;lon;timestamp;temperature;humidity
8332;DHT22;4203;48.144;14.118;2023-09-12T00:01:06;15.90;99.90
8332;DHT22;4203;48.144;14.118;2023-09-12T00:03:34;15.90;99.90
8332;DHT22;4203;48.144;14.118;2023-09-12T00:06:02;15.90;99.90
8332;DHT22;4203;48.144;14.118;2023-09-12T00:08:29;15.90;99.90
8332;DHT22;4203;48.144;14.118;2023-09-12T00:11:03;15.90;99.90
8332;DHT22;4203;48.144;14.118;2023-09-12T00:13:31;15.90;99.90
8332;DHT22;4203;48.144;14.118;2023-09-12T00:15:58;15.80;99.90
8332;DHT22;4203;48.144;14.118;2023-09-12T00:18:27;15.80;99.90
8332;DHT22;4203;48.144;14.118;2023-09-12T00:20:54;15.80;99.90
8332;DHT22;4203;48.144;14.118;2023-09-12T00:23:22;15.80;99.90
8332;DHT22;4203;48.144;14.118;2023-09-12T00:25:50;15.80;99.90
8332;DHT22;4203;48.144;14.118;2023-09-12T00:28:18;15.70;99.90
8332;DHT22;4203;48.144;14.118;2023-09-12T00:30:45;15.70;99.90
8332;DHT22;4203;48.144;14.118;2023-09-12T00:33:12;15.70;99.90
8332;DHT22;4203;48.144;14.118;2023-09-12T00:35:41;15.70;99.90
8332;DHT22;4203;48.144;14.118;2023-09-12T00:38:08;15.70;99.90
8332;DHT22;4203;48.144;14.118;2023-09-12T00:40:36;15.60;99.90
8332;DHT22;4203;48.144;14.118;2023-09-12T00:43:04;15.60;99.90
8332;DHT22;4203;48.144;14.118;2023-09-12T00:45:31;15.60;99.90
8332;DHT22;4203;48.144;14.118;2023-09-12T00:48:00;15.60;99.90
8332;DHT22;4203;48.144;14.118;2023-09-12T00:50:28;15.70;99.90
8332;DHT22;4203;48.144;14.118;2023-09-12T00:52:57;15.60;99.90
8332;DHT22;4203;48.144;14.118;2023-09-12T00:55:25;15.60;99.90
8332;DHT22;4203;48.144;14.118;2023-09-12T00:57:53;15.50;99.90
8332;DHT22;4203;48.144;14.118;2023-09-12T01:00:20;15.50;99.90
8332;DHT22;4203;48.144;14.118;2023-09-12T01:02:48;15.40;99.90
8332;DHT22;4203;48.144;14.118;2023-09-12T01:05:18;15.40;99.90
8332;DHT22;4203;48.144;14.118;2023-09-12T01:07:46;15.40;99.90
8332;DHT22;4203;48.144;14.118;2023-09-12T01:10:15;15.40;99.90
8332;DHT22;4203;48.144;14.118;2023-09-12T01:12:42;15.50;99.90
8332;DHT22;4203;48.144;14.118;2023-09-12T01:15:10;15.50;99.90
8332;DHT22;4203;48.144;14.118;2023-09-12T01:17:40;15.40;99.90
8332;DHT22;4203;48.144;14.118;2023-09-12T01:20:10;15.40;99.90
8332;DHT22;4203;48.144;14.118;2023-09-12T01:22:55;15.30;99.90
8332;DHT22;4203;48.144;14.118;2023-09-12T01:25:46;15.30;99.90
8332;DHT22;4203;48.144;14.118;2023-09-12T01:28:23;15.20;99.90
8332;DHT22;4203;48.144;14.118;2023-09-12T01:30:52;15.20;99.90
8332;DHT22;4203;48.144;14.118;2023-09-12T01:33:20;15.20;99.90
8332;DHT22;4203;48.144;14.118;2023-09-12T01:35:47;15.20;99.90
8332;DHT22;4203;48.144;14.118;2023-09-12T01:38:14;15.20;99.90
8332;DHT22;4203;48.144;14.118;2023-09-12T01:40:45;15.20;99.90
8332;DHT22;4203;48.144;14.118;2023-09-12T01:43:16;15.20;99.90
8332;DHT22;4203;48.144;14.118;2023-09-12T01:45:46;15.10;99.90
8332;DHT22;4203;48.144;14.118;2023-09-12T01:48:16;15.10;99.90
8332;DHT22;4203;48.144;14.118;2023-09-12T01:50:46;15.10;99.90
8332;DHT22;4203;48.144;14.118;2023-09-12T01:53:13;15.10;99.90
8332;DHT22;4203;48.144;14.118;2023-09-12T01:55:42;15.20;99.90
8332;DHT22;4203;48.144;14.118;2023-09-12T01:58:11;15.10;99.90
8332;DHT22;4203;48.144;14.118;2023-09-12T02:00:39;15.10;99.90
8332;DHT22;4203;48.144;14.118;2023-09-12T02:03:08;15.00;99.90
8332;DHT22;4203;48.144;14.118;2023-09-12T02:05:36;15.00;99.90
8332;DHT22;4203;48.144;14.118;2023-09-12T02:08:03;15.00;99.90
8332;DHT22;4203;48.144;14.118;2023-09-12T02:10:30;14.90;99.90
8332;DHT22;4203;48.144;14.118;2023-09-12T02:12:58;14.90;99.90
8332;DHT22;4203;48.144;14.118;2023-09-12T02:15:26;14.90;99.90
8332;DHT22;4203;48.144;14.118;2023-09-12T02:17:53;14.80;99.90
8332;DHT22;4203;48.144;14.118;2023-09-12T02:20:21;14.80;99.90
8332;DHT22;4203;48.144;14.118;2023-09-12T02:22:49;14.70;99.90
8332;DHT22;4203;48.144;14.118;2023-09-12T02:25:16;14.80;99.90
8332;DHT22;4203;48.144;14.118;2023-09-12T02:27:43;14.80;99.90
8332;DHT22;4203;48.144;14.118;2023-09-12T02:30:10;14.80;99.90
8332;DHT22;4203;48.144;14.118;2023-09-12T02:32:37;14.80;99.90
8332;DHT22;4203;48.144;14.118;2023-09-12T02:35:05;14.80;99.90
8332;DHT22;4203;48.144;14.118;2023-09-12T02:37:34;14.80;99.90
8332;DHT22;4203;48.144;14.118;2023-09-12T02:40:01;14.80;99.90
8332;DHT22;4203;48.144;14.118;2023-09-12T02:42:29;14.80;99.90
8332;DHT22;4203;48.144;14.118;2023-09-12T02:44:56;14.70;99.90
8332;DHT22;4203;48.144;14.118;2023-09-12T02:47:23;14.70;99.90
8332;DHT22;4203;48.144;14.118;2023-09-12T02:49:51;14.80;99.90
8332;DHT22;4203;48.144;14.118;2023-09-12T02:52:18;14.70;99.90
8332;DHT22;4203;48.144;14.118;2023-09-12T02:54:46;14.70;99.90
8332;DHT22;4203;48.144;14.118;2023-09-12T02:57:13;14.70;99.90
8332;DHT22;4203;48.144;14.118;2023-09-12T02:59:41;14.60;99.90
8332;DHT22;4203;48.144;14.118;2023-09-12T03:02:08;14.70;99.90
8332;DHT22;4203;48.144;14.118;2023-09-12T03:04:35;14.70;99.90
8332;DHT22;4203;48.144;14.118;2023-09-12T03:07:03;14.60;99.90
8332;DHT22;4203;48.144;14.118;2023-09-12T03:09:30;14.60;99.90
8332;DHT22;4203;48.144;14.118;2023-09-12T03:12:02;14.60;99.90
8332;DHT22;4203;48.144;14.118;2023-09-12T03:14:30;14.60;99.90
8332;DHT22;4203;48.144;14.118;2023-09-12T03:16:57;14.50;99.90
8332;DHT22;4203;48.144;14.118;2023-09-12T03:19:24;14.50;99.90
8332;DHT22;4203;48.144;14.118;2023-09-12T03:21:51;14.50;99.90
8332;DHT22;4203;48.144;14.118;2023-09-12T03:24:18;14.40;99.90
8332;DHT22;4203;48.144;14.118;2023-09-12T03:26:46;14.40;99.90
8332;DHT22;4203;48.144;14.118;2023-09-12T03:29:15;14.40;99.90
8332;DHT22;4203;48.144;14.118;2023-09-12T03:31:42;14.40;99.90
8332;DHT22;4203;48.144;14.118;2023-09-12T03:34:09;14.40;99.90
8332;DHT22;4203;48.144;14.118;2023-09-12T03:36:37;14.40;99.90
8332;DHT22;4203;48.144;14.118;2023-09-12T03:39:04;14.40;99.90
8332;DHT22;4203;48.144;14.118;2023-09-12T03:41:34;14.40;99.90
8332;DHT22;4203;48.144;14.118;2023-09-12T03:44:02;14.30;99.90
8332;DHT22;4203;48.144;14.118;2023-09-12T03:46:31;14.30;99.90
8332;DHT22;4203;48.144;14.118;2023-09-12T03:48:58;14.20;99.90
8332;DHT22;4203;48.144;14.118;2023-09-12T03:51:25;14.20;99.90
8332;DHT22;4203;48.144;14.118;2023-09-12T03:53:52;14.10;99.90
8332;DHT22;4203;48.144;14.118;2023-09-12T03:56:19;14.20;99.90
8332;DHT22;4203;48.144;14.118;2023-09-12T03:58:47;14.10;99.90
8332;DHT22;4203;48.144;14.118;2023-09-12T04:01:14;14.10;99.90
8332;DHT22;4203;48.144;14.118;2023-09-12T04:03:43;14.00;99.90
8332;DHT22;4203;48.144;14.118;2023-09-12T04:06:13;14.00;99.90
8332;DHT22;4203;48.144;14.118;2023-09-12T04:08:40;13.90;99.90
8332;DHT22;4203;48.144;14.118;2023-09-12T04:11:07;13.90;99.90
8332;DHT22;4203;48.144;14.118;2023-09-12T04:13:34;13.90;99.90
8332;DHT22;4203;48.144;14.118;2023-09-12T04:16:01;13.90;99.90
8332;DHT22;4203;48.144;14.118;2023-09-12T04:18:28;13.90;99.90
8332;DHT22;4203;48.144;14.118;2023-09-12T04:20:57;13.80;99.90
8332;DHT22;4203;48.144;14.118;2023-09-12T04:23:25;13.70;99.90
8332;DHT22;4203;48.144;14.118;2023-09-12T04:25:52;13.80;99.90
8332;DHT22;4203;48.144;14.118;2023-09-12T04:28:19;13.80;99.90
8332;DHT22;4203;48.144;14.118;2023-09-12T04:30:47;13.80;99.90
8332;DHT22;4203;48.144;14.118;2023-09-12T04:33:14;13.80;99.90
8332;DHT22;4203;48.144;14.118;2023-09-12T04:35:41;13.80;99.90
8332;DHT22;4203;48.144;14.118;2023-09-12T04:38:09;13.70;99.90
8332;DHT22;4203;48.144;14.118;2023-09-12T04:40:36;13.70;99.90
8332;DHT22;4203;48.144;14.118;2023-09-12T04:43:05;13.70;99.90
8332;DHT22;4203;48.144;14.118;2023-09-12T04:45:33;13.70;99.90
8332;DHT22;4203;48.144;14.118;2023-09-12T04:48:00;13.70;99.90
8332;DHT22;4203;48.144;14.118;2023-09-12T04:50:28;13.70;99.90
8332;DHT22;4203;48.144;14.118;2023-09-12T04:52:55;13.70;99.90
8332;DHT22;4203;48.144;14.118;2023-09-12T04:55:23;13.70;99.90
8332;DHT22;4203;48.144;14.118;2023-09-12T04:57:50;13.70;99.90
8332;DHT22;4203;48.144;14.118;2023-09-12T05:00:17;13.70;99.90
8332;DHT22;4203;48.144;14.118;2023-09-12T05:02:45;13.70;99.90
8332;DHT22;4203;48.144;14.118;2023-09-12T05:05:12;13.60;99.90
8332;DHT22;4203;48.144;14.118;2023-09-12T05:07:39;13.70;99.90
8332;DHT22;4203;48.144;14.118;2023-09-12T05:10:07;13.70;99.90
8332;DHT22;4203;48.144;14.118;2023-09-12T05:12:36;13.70;99.90
8332;DHT22;4203;48.144;14.118;2023-09-12T05:15:03;13.90;99.90
8332;DHT22;4203;48.144;14.118;2023-09-12T05:17:30;13.90;99.90
8332;DHT22;4203;48.144;14.118;2023-09-12T05:19:58;14.00;99.90
8332;DHT22;4203;48.144;14.118;2023-09-12T05:22:25;14.00;99.90
8332;DHT22;4203;48.144;14.118;2023-09-12T05:24:53;14.10;99.90
8332;DHT22;4203;48.144;14.118;2023-09-12T05:27:20;14.20;99.90
8332;DHT22;4203;48.144;14.118;2023-09-12T05:29:48;14.30;99.90
8332;DHT22;4203;48.144;14.118;2023-09-12T05:32:16;14.40;99.90
8332;DHT22;4203;48.144;14.118;2023-09-12T05:34:43;14.40;99.90
8332;DHT22;4203;48.144;14.118;2023-09-12T05:37:11;14.50;99.90
8332;DHT22;4203;48.144;14.118;2023-09-12T05:39:38;14.60;99.90
8332;DHT22;4203;48.144;14.118;2023-09-12T05:42:05;14.80;99.90
8332;DHT22;4203;48.144;14.118;2023-09-12T05:44:32;14.90;99.90
8332;DHT22;4203;48.144;14.118;2023-09-12T05:47:01;15.10;99.90
8332;DHT22;4203;48.144;14.118;2023-09-12T05:49:28;15.30;99.90
8332;DHT22;4203;48.144;14.118;2023-09-12T05:51:55;15.40;99.90
8332;DHT22;4203;48.144;14.118;2023-09-12T05:54:23;15.60;99.90
8332;DHT22;4203;48.144;14.118;2023-09-12T05:56:50;15.80;99.90
8332;DHT22;4203;48.144;14.118;2023-09-12T05:59:19;15.90;99.90
8332;DHT22;4203;48.144;14.118;2023-09-12T06:01:46;16.10;99.90
8332;DHT22;4203;48.144;14.118;2023-09-12T06:04:16;16.20;99.90
8332;DHT22;4203;48.144;14.118;2023-09-12T06:06:43;16.30;99.90
8332;DHT22;4203;48.144;14.118;2023-09-12T06:09:11;16.40;99.90
8332;DHT22;4203;48.144;14.118;2023-09-12T06:11:38;16.50;99.90
8332;DHT22;4203;48.144;14.118;2023-09-12T06:14:05;16.60;99.90
8332;DHT22;4203;48.144;14.118;2023-09-12T06:16:32;16.70;99.90
8332;DHT22;4203;48.144;14.118;2023-09-12T06:18:59;16.80;99.90
8332;DHT22;4203;48.144;14.118;2023-09-12T06:21:28;16.90;99.90
8332;DHT22;4203;48.144;14.118;2023-09-12T06:24:09;17.00;99.90
8332;DHT22;4203;48.144;14.118;2023-09-12T06:26:37;17.00;99.90
8332;DHT22;4203;48.144;14.118;2023-09-12T06:29:04;17.10;99.90
8332;DHT22;4203;48.144;14.118;2023-09-12T06:31:32;17.30;99.90
8332;DHT22;4203;48.144;14.118;2023-09-12T06:34:01;17.40;99.90
8332;DHT22;4203;48.144;14.118;2023-09-12T06:36:29;17.50;99.90
8332;DHT22;4203;48.144;14.118;2023-09-12T06:38:57;17.60;99.90
8332;DHT22;4203;48.144;14.118;2023-09-12T06:41:25;17.70;99.90
8332;DHT22;4203;48.144;14.118;2023-09-12T06:43:52;17.90;99.90
8332;DHT22;4203;48.144;14.118;2023-09-12T06:46:19;18.00;99.90
8332;DHT22;4203;48.144;14.118;2023-09-12T06:48:47;18.20;99.90
8332;DHT22;4203;48.144;14.118;2023-09-12T06:51:16;18.40;99.90
8332;DHT22;4203;48.144;14.118;2023-09-12T06:53:45;18.60;99.90
8332;DHT22;4203;48.144;14.118;2023-09-12T06:56:12;18.80;99.90
8332;DHT22;4203;48.144;14.118;2023-09-12T06:58:39;18.90;99.90
8332;DHT22;4203;48.144;14.118;2023-09-12T07:01:07;19.00;99.90
8332;DHT22;4203;48.144;14.118;2023-09-12T07:03:35;19.20;99.90
8332;DHT22;4203;48.144;14.118;2023-09-12T07:06:02;19.30;99.90
8332;DHT22;4203;48.144;14.118;2023-09-12T07:08:31;19.50;99.90
8332;DHT22;4203;48.144;14.118;2023-09-12T07:10:59;19.60;99.90
8332;DHT22;4203;48.144;14.118;2023-09-12T07:13:31;19.80;99.90
8332;DHT22;4203;48.144;14.118;2023-09-12T07:15:59;20.00;99.90
8332;DHT22;4203;48.144;14.118;2023-09-12T07:18:29;20.20;99.90
8332;DHT22;4203;48.144;14.118;2023-09-12T07:20:58;20.60;99.90
8332;DHT22;4203;48.144;14.118;2023-09-12T07:23:26;20.80;99.90
8332;DHT22;4203;48.144;14.118;2023-09-12T07:25:54;21.20;99.90
8332;DHT22;4203;48.144;14.118;2023-09-12T07:28:24;21.40;99.90
8332;DHT22;4203;48.144;14.118;2023-09-12T07:30:52;21.80;99.90
8332;DHT22;4203;48.144;14.118;2023-09-12T07:33:19;22.00;99.90
8332;DHT22;4203;48.144;14.118;2023-09-12T07:35:47;22.30;99.90
8332;DHT22;4203;48.144;14.118;2023-09-12T07:38:14;22.70;99.90
8332;DHT22;4203;48.144;14.118;2023-09-12T07:40:42;22.80;99.90
8332;DHT22;4203;48.144;14.118;2023-09-12T07:43:09;23.10;99.90
8332;DHT22;4203;48.144;14.118;2023-09-12T07:45:38;23.30;99.90
8332;DHT22;4203;48.144;14.118;2023-09-12T07:48:06;23.40;99.90
8332;DHT22;4203;48.144;14.118;2023-09-12T07:50:34;23.50;99.90
8332;DHT22;4203;48.144;14.118;2023-09-12T07:53:04;23.70;99.90
8332;DHT22;4203;48.144;14.118;2023-09-12T07:55:31;23.90;99.90
8332;DHT22;4203;48.144;14.118;2023-09-12T07:58:02;23.90;99.90
8332;DHT22;4203;48.144;14.118;2023-09-12T08:00:29;24.30;99.90
8332;DHT22;4203;48.144;14.118;2023-09-12T08:02:58;24.50;99.90
8332;DHT22;4203;48.144;14.118;2023-09-12T08:05:25;24.80;99.90
8332;DHT22;4203;48.144;14.118;2023-09-12T08:07:52;25.00;99.90
8332;DHT22;4203;48.144;14.118;2023-09-12T08:10:19;25.10;99.90
8332;DHT22;4203;48.144;14.118;2023-09-12T08:12:46;25.20;99.90
8332;DHT22;4203;48.144;14.118;2023-09-12T08:15:13;25.30;99.90
8332;DHT22;4203;48.144;14.118;2023-09-12T08:17:40;25.50;99.90
8332;DHT22;4203;48.144;14.118;2023-09-12T08:20:10;25.80;99.90
8332;DHT22;4203;48.144;14.118;2023-09-12T08:22:37;26.10;99.90
8332;DHT22;4203;48.144;14.118;2023-09-12T08:25:05;26.30;99.90
8332;DHT22;4203;48.144;14.118;2023-09-12T08:27:33;26.50;99.90
8332;DHT22;4203;48.144;14.118;2023-09-12T08:30:00;26.60;99.90
8332;DHT22;4203;48.144;14.118;2023-09-12T08:32:28;26.80;99.90
8332;DHT22;4203;48.144;14.118;2023-09-12T08:34:55;27.10;99.90
8332;DHT22;4203;48.144;14.118;2023-09-12T08:37:23;27.40;99.90
8332;DHT22;4203;48.144;14.118;2023-09-12T08:39:50;27.50;99.90
8332;DHT22;4203;48.144;14.118;2023-09-12T08:42:22;27.80;99.90
8332;DHT22;4203;48.144;14.118;2023-09-12T08:44:50;28.10;99.90
8332;DHT22;4203;48.144;14.118;2023-09-12T08:47:19;28.30;99.90
8332;DHT22;4203;48.144;14.118;2023-09-12T08:49:49;28.50;99.90
8332;DHT22;4203;48.144;14.118;2023-09-12T08:52:16;28.70;99.90
8332;DHT22;4203;48.144;14.118;2023-09-12T08:54:45;28.80;99.90
8332;DHT22;4203;48.144;14.118;2023-09-12T08:57:12;28.90;99.90
8332;DHT22;4203;48.144;14.118;2023-09-12T08:59:43;29.00;99.90
8332;DHT22;4203;48.144;14.118;2023-09-12T09:02:13;29.10;99.90
8332;DHT22;4203;48.144;14.118;2023-09-12T09:04:41;29.30;99.90
8332;DHT22;4203;48.144;14.118;2023-09-12T09:07:10;29.40;99.90
8332;DHT22;4203;48.144;14.118;2023-09-12T09:09:39;29.50;99.90
8332;DHT22;4203;48.144;14.118;2023-09-12T09:12:08;29.40;99.90
8332;DHT22;4203;48.144;14.118;2023-09-12T09:14:36;29.40;99.90
8332;DHT22;4203;48.144;14.118;2023-09-12T09:17:03;29.60;99.90
8332;DHT22;4203;48.144;14.118;2023-09-12T09:19:40;29.90;99.90
8332;DHT22;4203;48.144;14.118;2023-09-12T09:22:08;30.10;99.90
8332;DHT22;4203;48.144;14.118;2023-09-12T09:24:35;30.30;99.90
8332;DHT22;4203;48.144;14.118;2023-09-12T09:27:03;30.80;99.90
8332;DHT22;4203;48.144;14.118;2023-09-12T09:29:32;30.80;99.90
8332;DHT22;4203;48.144;14.118;2023-09-12T09:32:17;31.00;99.90
8332;DHT22;4203;48.144;14.118;2023-09-12T09:34:44;31.40;99.90
8332;DHT22;4203;48.144;14.118;2023-09-12T09:37:12;31.30;99.90
8332;DHT22;4203;48.144;14.118;2023-09-12T09:39:41;31.10;99.90
8332;DHT22;4203;48.144;14.118;2023-09-12T09:42:10;30.80;99.90
8332;DHT22;4203;48.144;14.118;2023-09-12T09:44:39;30.40;99.90
8332;DHT22;4203;48.144;14.118;2023-09-12T09:47:08;30.20;99.90
8332;DHT22;4203;48.144;14.118;2023-09-12T09:49:35;30.40;99.90
8332;DHT22;4203;48.144;14.118;2023-09-12T09:52:04;30.60;99.90
8332;DHT22;4203;48.144;14.118;2023-09-12T09:54:31;31.20;99.90
8332;DHT22;4203;48.144;14.118;2023-09-12T09:56:59;31.70;99.90
8332;DHT22;4203;48.144;14.118;2023-09-12T09:59:27;32.00;99.90
8332;DHT22;4203;48.144;14.118;2023-09-12T10:01:57;32.40;99.90
8332;DHT22;4203;48.144;14.118;2023-09-12T10:04:27;32.50;99.90
8332;DHT22;4203;48.144;14.118;2023-09-12T10:06:56;32.60;99.90
8332;DHT22;4203;48.144;14.118;2023-09-12T10:09:26;32.80;99.90
8332;DHT22;4203;48.144;14.118;2023-09-12T10:11:55;32.90;99.90
8332;DHT22;4203;48.144;14.118;2023-09-12T10:14:24;33.00;99.90
8332;DHT22;4203;48.144;14.118;2023-09-12T10:17:00;33.30;99.90
8332;DHT22;4203;48.144;14.118;2023-09-12T10:19:36;33.60;99.90
8332;DHT22;4203;48.144;14.118;2023-09-12T10:22:09;33.90;99.90
8332;DHT22;4203;48.144;14.118;2023-09-12T10:24:39;34.20;99.90
8332;DHT22;4203;48.144;14.118;2023-09-12T10:27:08;34.30;99.90
8332;DHT22;4203;48.144;14.118;2023-09-12T10:29:36;34.30;99.90
8332;DHT22;4203;48.144;14.118;2023-09-12T10:32:05;34.40;99.90
8332;DHT22;4203;48.144;14.118;2023-09-12T10:34:34;34.30;99.90
8332;DHT22;4203;48.144;14.118;2023-09-12T10:37:03;33.50;99.90
8332;DHT22;4203;48.144;14.118;2023-09-12T10:39:32;33.70;99.90
8332;DHT22;4203;48.144;14.118;2023-09-12T10:42:00;33.90;99.90
8332;DHT22;4203;48.144;14.118;2023-09-12T10:44:31;34.30;99.90
8332;DHT22;4203;48.144;14.118;2023-09-12T10:46:59;34.60;99.90
8332;DHT22;4203;48.144;14.118;2023-09-12T10:49:28;34.80;99.90
8332;DHT22;4203;48.144;14.118;2023-09-12T10:51:57;35.00;99.90
8332;DHT22;4203;48.144;14.118;2023-09-12T10:54:25;35.20;99.90
8332;DHT22;4203;48.144;14.118;2023-09-12T10:57:02;35.30;99.90
8332;DHT22;4203;48.144;14.118;2023-09-12T10:59:30;35.60;99.90
8332;DHT22;4203;48.144;14.118;2023-09-12T11:02:28;35.70;99.90
8332;DHT22;4203;48.144;14.118;2023-09-12T11:05:03;35.60;99.90
8332;DHT22;4203;48.144;14.118;2023-09-12T11:07:44;35.70;99.90
8332;DHT22;4203;48.144;14.118;2023-09-12T11:10:22;35.80;99.90
8332;DHT22;4203;48.144;14.118;2023-09-12T11:12:51;35.80;99.90
8332;DHT22;4203;48.144;14.118;2023-09-12T11:15:20;35.80;99.90
8332;DHT22;4203;48.144;14.118;2023-09-12T11:17:48;36.00;99.50
8332;DHT22;4203;48.144;14.118;2023-09-12T11:20:17;36.10;99.50
8332;DHT22;4203;48.144;14.118;2023-09-12T11:22:45;36.00;97.40
8332;DHT22;4203;48.144;14.118;2023-09-12T11:25:16;35.60;94.40
8332;DHT22;4203;48.144;14.118;2023-09-12T11:27:45;35.50;96.50
8332;DHT22;4203;48.144;14.118;2023-09-12T11:30:28;35.50;97.30
8332;DHT22;4203;48.144;14.118;2023-09-12T11:32:57;35.60;95.30
8332;DHT22;4203;48.144;14.118;2023-09-12T11:35:28;35.50;94.90
8332;DHT22;4203;48.144;14.118;2023-09-12T11:37:57;35.60;95.80
8332;DHT22;4203;48.144;14.118;2023-09-12T11:40:26;35.60;95.30
8332;DHT22;4203;48.144;14.118;2023-09-12T11:42:53;35.60;96.70
8332;DHT22;4203;48.144;14.118;2023-09-12T11:45:22;35.60;93.20
8332;DHT22;4203;48.144;14.118;2023-09-12T11:47:50;35.60;94.80
8332;DHT22;4203;48.144;14.118;2023-09-12T11:50:28;35.60;95.40
8332;DHT22;4203;48.144;14.118;2023-09-12T11:53:00;35.60;95.40
8332;DHT22;4203;48.144;14.118;2023-09-12T11:55:31;35.70;95.20
8332;DHT22;4203;48.144;14.118;2023-09-12T11:57:59;35.60;94.40
8332;DHT22;4203;48.144;14.118;2023-09-12T12:00:27;35.60;95.00
8332;DHT22;4203;48.144;14.118;2023-09-12T12:02:54;35.60;94.20
8332;DHT22;4203;48.144;14.118;2023-09-12T12:05:21;35.50;96.00
8332;DHT22;4203;48.144;14.118;2023-09-12T12:07:50;35.40;92.60
8332;DHT22;4203;48.144;14.118;2023-09-12T12:10:18;35.40;96.50
8332;DHT22;4203;48.144;14.118;2023-09-12T12:12:45;35.50;93.50
8332;DHT22;4203;48.144;14.118;2023-09-12T12:15:13;35.40;93.40
8332;DHT22;4203;48.144;14.118;2023-09-12T12:17:41;35.30;94.50
8332;DHT22;4203;48.144;14.118;2023-09-12T12:20:10;35.10;93.80
8332;DHT22;4203;48.144;14.118;2023-09-12T12:22:37;35.00;96.30
8332;DHT22;4203;48.144;14.118;2023-09-12T12:25:08;35.00;95.70
8332;DHT22;4203;48.144;14.118;2023-09-12T12:27:37;34.80;95.20
8332;DHT22;4203;48.144;14.118;2023-09-12T12:30:06;34.80;94.40
8332;DHT22;4203;48.144;14.118;2023-09-12T12:32:34;34.70;94.20
8332;DHT22;4203;48.144;14.118;2023-09-12T12:35:01;34.40;93.20
8332;DHT22;4203;48.144;14.118;2023-09-12T12:37:30;34.20;92.80
8332;DHT22;4203;48.144;14.118;2023-09-12T12:39:58;34.30;94.70
8332;DHT22;4203;48.144;14.118;2023-09-12T12:42:33;34.20;91.10
8332;DHT22;4203;48.144;14.118;2023-09-12T12:45:02;34.00;94.10
8332;DHT22;4203;48.144;14.118;2023-09-12T12:47:29;34.10;95.10
8332;DHT22;4203;48.144;14.118;2023-09-12T12:49:57;34.40;95.70
8332;DHT22;4203;48.144;14.118;2023-09-12T12:52:25;34.60;94.80
8332;DHT22;4203;48.144;14.118;2023-09-12T12:55:03;34.70;94.10
8332;DHT22;4203;48.144;14.118;2023-09-12T12:57:32;34.60;94.90
8332;DHT22;4203;48.144;14.118;2023-09-12T13:00:04;34.50;92.70
8332;DHT22;4203;48.144;14.118;2023-09-12T13:02:31;34.40;94.50
8332;DHT22;4203;48.144;14.118;2023-09-12T13:04:59;34.50;94.00
8332;DHT22;4203;48.144;14.118;2023-09-12T13:07:26;34.50;93.60
8332;DHT22;4203;48.144;14.118;2023-09-12T13:09:53;34.50;93.00
8332;DHT22;4203;48.144;14.118;2023-09-12T13:12:21;34.40;93.40
8332;DHT22;4203;48.144;14.118;2023-09-12T13:14:49;34.30;94.80
8332;DHT22;4203;48.144;14.118;2023-09-12T13:17:16;33.90;94.70
8332;DHT22;4203;48.144;14.118;2023-09-12T13:19:43;33.40;94.60
8332;DHT22;4203;48.144;14.118;2023-09-12T13:22:11;33.00;95.30
8332;DHT22;4203;48.144;14.118;2023-09-12T13:24:38;32.80;94.70
8332;DHT22;4203;48.144;14.118;2023-09-12T13:27:05;32.60;95.40
8332;DHT22;4203;48.144;14.118;2023-09-12T13:29:32;32.40;96.60
8332;DHT22;4203;48.144;14.118;2023-09-12T13:32:01;32.20;97.10
8332;DHT22;4203;48.144;14.118;2023-09-12T13:34:28;32.00;97.90
8332;DHT22;4203;48.144;14.118;2023-09-12T13:36:56;32.00;97.40
8332;DHT22;4203;48.144;14.118;2023-09-12T13:39:24;32.20;97.80
8332;DHT22;4203;48.144;14.118;2023-09-12T13:41:51;32.20;96.90
8332;DHT22;4203;48.144;14.118;2023-09-12T13:44:18;32.30;96.40
8332;DHT22;4203;48.144;14.118;2023-09-12T13:46:45;32.40;97.30
8332;DHT22;4203;48.144;14.118;2023-09-12T13:49:14;32.50;95.00
8332;DHT22;4203;48.144;14.118;2023-09-12T13:51:41;32.60;98.60
8332;DHT22;4203;48.144;14.118;2023-09-12T13:54:08;32.50;97.50
8332;DHT22;4203;48.144;14.118;2023-09-12T13:56:40;32.40;97.50
8332;DHT22;4203;48.144;14.118;2023-09-12T13:59:07;32.10;97.20
8332;DHT22;4203;48.144;14.118;2023-09-12T14:01:34;31.80;98.70
8332;DHT22;4203;48.144;14.118;2023-09-12T14:04:02;31.50;98.60
8332;DHT22;4203;48.144;14.118;2023-09-12T14:06:32;31.10;98.30
8332;DHT22;4203;48.144;14.118;2023-09-12T14:09:00;30.80;99.90
8332;DHT22;4203;48.144;14.118;2023-09-12T14:11:27;30.60;99.90
8332;DHT22;4203;48.144;14.118;2023-09-12T14:13:55;30.30;99.90
8332;DHT22;4203;48.144;14.118;2023-09-12T14:16:22;30.10;99.90
8332;DHT22;4203;48.144;14.118;2023-09-12T14:18:49;29.90;99.90
8332;DHT22;4203;48.144;14.118;2023-09-12T14:21:16;29.80;99.90
8332;DHT22;4203;48.144;14.118;2023-09-12T14:23:45;29.70;99.90
8332;DHT22;4203;48.144;14.118;2023-09-12T14:26:12;29.70;99.90
8332;DHT22;4203;48.144;14.118;2023-09-12T14:28:39;29.60;99.90
8332;DHT22;4203;48.144;14.118;2023-09-12T14:31:06;29.60;99.90
8332;DHT22;4203;48.144;14.118;2023-09-12T14:33:39;29.60;99.90
8332;DHT22;4203;48.144;14.118;2023-09-12T14:36:08;29.60;99.90
8332;DHT22;4203;48.144;14.118;2023-09-12T14:38:35;29.70;99.90
8332;DHT22;4203;48.144;14.118;2023-09-12T14:41:04;29.80;99.90
8332;DHT22;4203;48.144;14.118;2023-09-12T14:43:31;30.00;99.90
8332;DHT22;4203;48.144;14.118;2023-09-12T14:45:58;30.20;99.90
8332;DHT22;4203;48.144;14.118;2023-09-12T14:48:26;30.30;99.90
8332;DHT22;4203;48.144;14.118;2023-09-12T14:50:53;30.40;99.90
8332;DHT22;4203;48.144;14.118;2023-09-12T14:53:20;30.40;99.90
8332;DHT22;4203;48.144;14.118;2023-09-12T14:55:48;30.40;99.90
8332;DHT22;4203;48.144;14.118;2023-09-12T14:58:16;30.30;99.90
8332;DHT22;4203;48.144;14.118;2023-09-12T15:00:43;30.20;99.90
8332;DHT22;4203;48.144;14.118;2023-09-12T15:03:10;30.00;99.90
8332;DHT22;4203;48.144;14.118;2023-09-12T15:05:38;29.80;99.90
8332;DHT22;4203;48.144;14.118;2023-09-12T15:08:05;29.70;99.90
8332;DHT22;4203;48.144;14.118;2023-09-12T15:10:32;29.70;99.90
8332;DHT22;4203;48.144;14.118;2023-09-12T15:12:59;29.60;99.90
8332;DHT22;4203;48.144;14.118;2023-09-12T15:15:28;29.60;99.10
8332;DHT22;4203;48.144;14.118;2023-09-12T15:17:55;29.60;99.90
8332;DHT22;4203;48.144;14.118;2023-09-12T15:20:22;29.50;99.90
8332;DHT22;4203;48.144;14.118;2023-09-12T15:22:49;29.40;99.40
8332;DHT22;4203;48.144;14.118;2023-09-12T15:25:17;29.30;99.90
8332;DHT22;4203;48.144;14.118;2023-09-12T15:27:44;29.20;99.90
8332;DHT22;4203;48.144;14.118;2023-09-12T15:30:12;29.10;99.90
8332;DHT22;4203;48.144;14.118;2023-09-12T15:32:41;28.90;99.90
8332;DHT22;4203;48.144;14.118;2023-09-12T15:35:08;28.80;99.90
8332;DHT22;4203;48.144;14.118;2023-09-12T15:37:36;28.60;99.90
8332;DHT22;4203;48.144;14.118;2023-09-12T15:40:04;28.60;99.90
8332;DHT22;4203;48.144;14.118;2023-09-12T15:42:31;28.40;99.90
8332;DHT22;4203;48.144;14.118;2023-09-12T15:44:58;28.40;99.90
8332;DHT22;4203;48.144;14.118;2023-09-12T15:47:25;28.30;99.90
8332;DHT22;4203;48.144;14.118;2023-09-12T15:49:55;28.20;99.90
8332;DHT22;4203;48.144;14.118;2023-09-12T15:52:22;28.10;99.90